sim
Sign-in with your pilot id or email,
or register
Callsign
Passwort

Schedule Details

Flight Number: OEO3780
Departure: Basel Mulhouse-Freiburg EuroAirport (LFSB) at 12:45
Arrival: Fuerteventura Airport (GCFV) at 17:10

Weather Information
Getting current METAR information for LFSB 211600Z 25008KT CAVOK 16/01 Q1027 NOSIG
Getting current METAR information for GCFV 211600Z 06005KT 030V110 CAVOK 20/14 Q1020

Schedule Frequency

Route Map